createdAt,value
2019-04-28T00:03:53.653Z,10.10
2019-04-28T00:09:01.620Z,10.10
2019-04-28T00:14:08.498Z,10.10
2019-04-28T00:19:14.656Z,10.10
2019-04-28T00:24:34.537Z,10.00
2019-04-28T00:29:45.567Z,10.00
2019-04-28T00:34:48.143Z,10.00
2019-04-28T00:39:54.113Z,9.90
2019-04-28T00:45:01.677Z,9.90
2019-04-28T00:50:07.745Z,9.90
2019-04-28T00:55:13.893Z,9.90
2019-04-28T01:00:23.101Z,9.90
2019-04-28T01:05:29.029Z,9.90
2019-04-28T01:10:35.052Z,9.90
2019-04-28T01:16:11.973Z,9.80
2019-04-28T01:21:17.873Z,9.80
2019-04-28T01:26:23.800Z,9.90
2019-04-28T01:31:40.906Z,9.80
2019-04-28T01:36:46.834Z,9.80
2019-04-28T01:41:52.710Z,9.80
2019-04-28T01:46:59.516Z,9.90
2019-04-28T01:52:06.094Z,9.90
2019-04-28T01:57:11.953Z,9.80
2019-04-28T02:02:19.777Z,9.70
2019-04-28T02:07:25.842Z,9.70
2019-04-28T02:12:31.511Z,9.60
2019-04-28T02:17:37.480Z,9.60
2019-04-28T02:22:57.426Z,9.60
2019-04-28T02:28:03.589Z,9.60
2019-04-28T02:33:11.138Z,9.70
2019-04-28T02:38:17.062Z,9.80
2019-04-28T02:43:22.946Z,9.70
2019-04-28T02:48:30.973Z,9.70
2019-04-28T02:53:40.911Z,9.70
2019-04-28T02:58:46.779Z,9.60
2019-04-28T03:03:52.754Z,9.50
2019-04-28T03:09:00.274Z,9.50
2019-04-28T03:14:06.442Z,9.50
2019-04-28T03:19:12.314Z,9.60
2019-04-28T03:24:18.167Z,9.60
2019-04-28T03:29:36.757Z,9.60
2019-04-28T03:34:44.747Z,9.70
2019-04-28T03:39:50.771Z,9.70
2019-04-28T03:45:00.847Z,9.70
2019-04-28T03:50:06.436Z,9.70
2019-04-28T03:55:12.464Z,9.70
2019-04-28T04:00:18.447Z,9.70
2019-04-28T04:05:24.230Z,9.70
2019-04-28T04:10:37.195Z,9.70
2019-04-28T04:16:01.666Z,9.70
2019-04-28T04:21:11.110Z,9.70
2019-04-28T04:26:16.687Z,9.70
2019-04-28T04:31:22.779Z,9.70
2019-04-28T04:36:31.034Z,9.70
2019-04-28T04:41:36.452Z,9.70
2019-04-28T04:46:42.633Z,9.70
2019-04-28T04:51:50.863Z,9.70
2019-04-28T04:56:55.827Z,9.70
2019-04-28T05:02:30.619Z,9.80
2019-04-28T05:07:34.798Z,9.90
2019-04-28T05:12:40.927Z,9.90
2019-04-28T05:17:46.923Z,9.90
2019-04-28T05:23:00.685Z,9.80
2019-04-28T05:28:06.658Z,9.90
2019-04-28T05:33:30.722Z,9.90
2019-04-28T05:38:34.218Z,9.80
2019-04-28T05:43:40.520Z,9.80
2019-04-28T05:48:56.563Z,9.80
2019-04-28T05:54:15.255Z,9.80
2019-04-28T06:00:03.382Z,9.80
2019-04-28T06:05:10.156Z,9.80
2019-04-28T06:10:16.392Z,9.80
2019-04-28T06:15:22.330Z,9.80
2019-04-28T06:20:30.345Z,9.90
2019-04-28T06:25:37.922Z,9.80
2019-04-28T06:30:43.743Z,9.80
2019-04-28T06:35:49.523Z,9.90
2019-04-28T06:40:55.300Z,10.00
2019-04-28T06:46:01.296Z,10.10
2019-04-28T06:51:07.257Z,10.00
2019-04-28T06:56:13.276Z,9.90
2019-04-28T07:01:19.324Z,10.00
2019-04-28T07:06:25.483Z,10.10
2019-04-28T07:11:31.405Z,10.20
2019-04-28T07:16:37.269Z,10.20
2019-04-28T07:21:49.294Z,10.30
2019-04-28T07:26:55.500Z,10.50
2019-04-28T07:32:02.385Z,10.60
2019-04-28T07:37:08.426Z,10.60
2019-04-28T07:42:14.364Z,10.70
2019-04-28T07:47:21.427Z,10.90
2019-04-28T07:52:33.476Z,11.20
2019-04-28T07:57:39.345Z,11.80
2019-04-28T08:02:45.328Z,11.40
2019-04-28T08:07:51.443Z,11.20
2019-04-28T08:12:57.380Z,11.10
2019-04-28T08:18:03.672Z,11.00
2019-04-28T08:23:09.731Z,11.00
2019-04-28T08:28:15.816Z,11.00
2019-04-28T08:33:35.998Z,10.90
2019-04-28T08:38:42.030Z,10.90
2019-04-28T08:43:47.868Z,10.90
2019-04-28T08:48:53.723Z,11.00
2019-04-28T08:53:59.713Z,11.00
2019-04-28T08:59:06.622Z,11.10
2019-04-28T09:04:15.501Z,11.10
2019-04-28T09:09:21.452Z,11.20
2019-04-28T09:14:27.404Z,11.40
2019-04-28T09:19:33.446Z,11.50
2019-04-28T09:24:40.173Z,11.60
2019-04-28T09:29:46.154Z,11.70
2019-04-28T09:34:52.131Z,11.70
2019-04-28T09:40:06.332Z,11.70
2019-04-28T09:45:17.820Z,11.90
2019-04-28T09:50:24.004Z,12.10
2019-04-28T09:55:30.321Z,12.40
2019-04-28T10:00:37.831Z,12.70
2019-04-28T10:05:43.750Z,13.00
2019-04-28T10:10:49.752Z,13.10
2019-04-28T10:15:55.610Z,13.00
2019-04-28T10:21:01.807Z,12.80
2019-04-28T10:26:07.860Z,12.70
2019-04-28T10:36:19.481Z,12.70
2019-04-28T10:41:33.578Z,12.70
2019-04-28T10:46:39.405Z,12.70
2019-04-28T10:51:49.100Z,12.70
2019-04-28T10:56:52.787Z,12.70
2019-04-28T11:01:58.740Z,12.70
2019-04-28T11:07:04.976Z,12.80
2019-04-28T11:12:15.071Z,12.90
2019-04-28T11:17:22.093Z,13.00
2019-04-28T11:22:28.197Z,13.00
2019-04-28T11:27:34.179Z,13.00
2019-04-28T11:32:42.812Z,13.00
2019-04-28T11:37:48.932Z,13.00
2019-04-28T11:42:55.901Z,13.00
2019-04-28T11:48:01.863Z,13.10
2019-04-28T11:53:07.840Z,13.10
2019-04-28T11:58:13.835Z,13.10
2019-04-28T12:03:19.984Z,13.00
2019-04-28T12:08:25.960Z,13.00
2019-04-28T12:13:48.720Z,13.00
2019-04-28T12:19:17.877Z,13.00
2019-04-28T12:24:23.818Z,13.00
2019-04-28T12:29:29.794Z,13.00
2019-04-28T12:34:35.807Z,13.00
2019-04-28T12:39:41.802Z,13.10
2019-04-28T12:44:47.718Z,13.20
2019-04-28T12:50:12.582Z,13.20
2019-04-28T12:55:18.738Z,13.20
2019-04-28T13:00:46.310Z,13.30
2019-04-28T13:06:02.398Z,13.40
2019-04-28T13:11:00.430Z,13.40
2019-04-28T13:16:06.588Z,13.40
2019-04-28T13:21:14.206Z,13.50
2019-04-28T13:26:20.065Z,13.50
2019-04-28T13:31:26.037Z,13.50
2019-04-28T13:36:32.025Z,13.40
2019-04-28T13:41:38.231Z,13.30
2019-04-28T13:46:44.154Z,13.20
2019-04-28T13:51:50.113Z,13.20
2019-04-28T13:56:56.156Z,13.30
2019-04-28T14:02:10.850Z,13.40
2019-04-28T14:07:18.191Z,13.40
2019-04-28T14:12:24.199Z,13.50
2019-04-28T14:17:30.235Z,13.60
2019-04-28T14:22:36.208Z,13.70
2019-04-28T14:27:42.186Z,13.70
2019-04-28T14:32:48.240Z,13.70
2019-04-28T14:37:54.535Z,13.70
2019-04-28T14:43:00.546Z,13.70
2019-04-28T14:48:07.316Z,13.80
2019-04-28T14:53:13.376Z,13.90
2019-04-28T14:58:19.433Z,13.90
2019-04-28T15:03:26.873Z,13.90
2019-04-28T15:08:50.462Z,14.00
2019-04-28T15:13:56.506Z,14.00
2019-04-28T15:19:02.674Z,14.00
2019-04-28T15:24:08.729Z,14.00
2019-04-28T15:29:14.885Z,13.90
2019-04-28T15:34:20.844Z,13.90
2019-04-28T15:39:26.833Z,14.00
2019-04-28T15:44:32.716Z,14.10
2019-04-28T15:49:38.770Z,14.20
2019-04-28T15:54:44.894Z,14.20
2019-04-28T15:59:50.919Z,14.10
2019-04-28T16:04:56.910Z,14.10
2019-04-28T16:10:02.978Z,14.20
2019-04-28T16:15:09.244Z,14.20
2019-04-28T16:20:15.417Z,14.20
2019-04-28T16:25:21.359Z,14.20
2019-04-28T16:30:27.267Z,14.20
2019-04-28T16:35:33.191Z,14.20
2019-04-28T16:40:40.857Z,14.20
2019-04-28T16:45:47.201Z,14.20
2019-04-28T16:50:53.234Z,14.20
2019-04-28T16:56:30.470Z,14.10
2019-04-28T17:02:04.249Z,14.00
2019-04-28T17:07:10.339Z,13.90
2019-04-28T17:12:17.224Z,14.00
2019-04-28T17:17:24.260Z,13.90
2019-04-28T17:22:30.439Z,13.80
2019-04-28T17:27:36.620Z,13.80
2019-04-28T17:32:43.030Z,13.80
2019-04-28T17:37:48.928Z,13.80
2019-04-28T17:42:55.044Z,13.80
2019-04-28T17:48:07.372Z,13.70
2019-04-28T17:53:13.358Z,13.70
2019-04-28T17:58:19.438Z,13.70
2019-04-28T18:03:41.251Z,13.60
2019-04-28T18:08:47.354Z,13.60
2019-04-28T18:13:53.336Z,13.60
2019-04-28T18:19:05.996Z,13.50
2019-04-28T18:24:12.027Z,13.50
2019-04-28T18:29:18.134Z,13.50
2019-04-28T18:34:55.426Z,13.50
2019-04-28T18:40:24.564Z,13.50
2019-04-28T18:45:30.625Z,13.40
2019-04-28T18:50:36.961Z,13.40
2019-04-28T18:55:42.888Z,13.40
2019-04-28T19:01:07.615Z,13.40
2019-04-28T19:06:13.523Z,13.30
2019-04-28T19:11:31.900Z,13.30
2019-04-28T19:16:56.526Z,13.30
2019-04-28T19:22:02.614Z,13.30
2019-04-28T19:27:08.806Z,13.40
2019-04-28T19:32:35.330Z,13.40
2019-04-28T19:37:47.419Z,13.40
2019-04-28T19:43:16.090Z,13.40
2019-04-28T19:48:30.481Z,13.20
2019-04-28T19:53:37.797Z,13.20
2019-04-28T19:58:48.922Z,13.20
2019-04-28T20:03:55.013Z,13.10
2019-04-28T20:09:00.983Z,13.10
2019-04-28T20:14:07.097Z,12.90
2019-04-28T20:19:13.266Z,12.80
2019-04-28T20:24:19.633Z,12.80
2019-04-28T20:29:25.710Z,12.90
2019-04-28T20:34:31.798Z,12.90
2019-04-28T20:39:37.966Z,12.80
2019-04-28T20:44:44.034Z,12.80
2019-04-28T20:49:50.134Z,12.70
2019-04-28T20:54:56.221Z,12.70
2019-04-28T21:00:02.350Z,12.70
2019-04-28T21:05:08.460Z,12.70
2019-04-28T21:10:15.703Z,12.70
2019-04-28T21:15:21.636Z,12.60
2019-04-28T21:20:27.669Z,12.60
2019-04-28T21:25:33.820Z,12.50
2019-04-28T21:30:39.720Z,12.50
2019-04-28T21:35:45.738Z,12.40
2019-04-28T21:40:52.119Z,12.40
2019-04-28T21:46:13.626Z,12.40
2019-04-28T21:51:19.671Z,12.40
2019-04-28T21:56:25.694Z,12.40
2019-04-28T22:01:31.954Z,12.20
2019-04-28T22:06:38.048Z,12.20
2019-04-28T22:11:43.699Z,12.00
2019-04-28T22:16:49.810Z,12.00
2019-04-28T22:21:55.639Z,12.00
2019-04-28T22:27:02.088Z,12.00
2019-04-28T22:32:08.020Z,12.00
2019-04-28T22:37:14.339Z,11.90
2019-04-28T22:42:20.480Z,11.90
2019-04-28T22:47:26.559Z,11.80
2019-04-28T22:52:32.521Z,11.80
2019-04-28T22:58:06.616Z,11.80
2019-04-28T23:03:17.699Z,11.70
2019-04-28T23:08:23.769Z,11.70
2019-04-28T23:13:30.033Z,11.60
2019-04-28T23:18:36.215Z,11.50
2019-04-28T23:23:42.262Z,11.50
2019-04-28T23:28:48.380Z,11.50
2019-04-28T23:33:54.309Z,11.50
2019-04-28T23:39:00.389Z,11.50
2019-04-28T23:44:06.557Z,11.50
2019-04-28T23:49:12.430Z,11.50
2019-04-28T23:54:18.521Z,11.50
2019-04-28T23:59:24.410Z,11.40
